CZ-0013 weather

Hradec Králové Heliport
Hradec Králové, Hradec Králové Region, Czechia

Public forecast

Using degrees Celsius for public forecast. Weather courtesy of forecast.io.

METAR (pilot weather report)

Closest report is Pardubice Airport, 11.3 nm (20.9 km) SSW. Retrieved 2019/09/23 10:00 UTC (51 minutes ago):

LKPD 231000Z VRB04KT CAVOK 19/07 Q1013 NOSIG RMK BLU BLU

TAF (pilot weather forecast)

Closest forecast is Pardubice Airport, 11.3 nm (20.9 km) SSW. Retrieved 2019/09/23 06:01 UTC (5 hours ago):

TAF LKPD 230500Z 2306/2406 VRB02KT CAVOK TEMPO 2306/2311 11005KT BECMG 2310/2312 BKN035 TEMPO 2400/2406 3000 BR BKN006 PROB30 TEMPO 2402/2406 0600 FG VV002